createdAt,value
2024-05-09T00:00:39.605Z,11.96
2024-05-09T00:01:36.627Z,11.95
2024-05-09T00:02:37.606Z,11.96
2024-05-09T00:03:38.531Z,11.91
2024-05-09T00:04:39.428Z,11.89
2024-05-09T00:05:40.580Z,11.89
2024-05-09T00:06:41.146Z,11.88
2024-05-09T00:07:42.059Z,11.84
2024-05-09T00:08:42.968Z,11.84
2024-05-09T00:09:43.853Z,11.84
2024-05-09T00:10:44.789Z,11.80
2024-05-09T00:11:45.784Z,11.80
2024-05-09T00:12:46.206Z,11.77
2024-05-09T00:13:47.162Z,11.76
2024-05-09T00:14:48.032Z,11.71
2024-05-09T00:15:48.913Z,11.71
2024-05-09T00:16:49.831Z,11.69
2024-05-09T00:17:51.037Z,11.66
2024-05-09T00:18:51.531Z,11.66
2024-05-09T00:19:52.455Z,11.66
2024-05-09T00:20:53.340Z,11.66
2024-05-09T00:21:54.230Z,11.67
2024-05-09T00:22:55.161Z,11.67
2024-05-09T00:23:56.025Z,11.61
2024-05-09T00:24:56.924Z,11.58
2024-05-09T00:25:57.895Z,11.58
2024-05-09T00:26:58.761Z,11.58
2024-05-09T00:27:59.678Z,11.55
2024-05-09T00:29:00.596Z,11.55
2024-05-09T00:30:01.535Z,11.52
2024-05-09T00:31:02.400Z,11.55
2024-05-09T00:32:03.550Z,11.54
2024-05-09T00:33:04.718Z,11.51
2024-05-09T00:34:04.899Z,11.51
2024-05-09T00:35:05.368Z,11.46
2024-05-09T00:36:06.220Z,11.45
2024-05-09T00:37:07.100Z,11.45
2024-05-09T00:38:08.291Z,11.43
2024-05-09T00:39:08.753Z,11.41
2024-05-09T00:40:15.116Z,11.38
2024-05-09T00:41:11.425Z,11.41
2024-05-09T00:42:11.319Z,11.41
2024-05-09T00:43:13.555Z,11.37
2024-05-09T00:44:13.041Z,11.33
2024-05-09T00:45:13.494Z,11.33
2024-05-09T00:46:14.376Z,11.31
2024-05-09T00:47:15.559Z,11.31
2024-05-09T00:48:18.719Z,11.30
2024-05-09T00:49:16.864Z,11.27
2024-05-09T00:50:23.006Z,11.30
2024-05-09T00:51:19.089Z,11.28
2024-05-09T00:52:18.918Z,11.30
2024-05-09T00:53:19.863Z,11.31
2024-05-09T00:54:20.738Z,11.28
2024-05-09T00:55:21.629Z,11.28
2024-05-09T00:56:22.599Z,11.28
2024-05-09T00:57:23.459Z,11.27
2024-05-09T01:00:22.564Z,11.22
2024-05-09T01:01:14.635Z,11.19
2024-05-09T01:02:14.590Z,11.19
2024-05-09T01:03:15.696Z,11.18
2024-05-09T01:04:16.220Z,11.19
2024-05-09T01:05:17.247Z,11.20
2024-05-09T01:06:17.613Z,11.18
2024-05-09T01:07:18.498Z,11.16
2024-05-09T01:08:19.413Z,11.16
2024-05-09T01:09:20.276Z,11.15
2024-05-09T01:10:27.733Z,11.15
2024-05-09T01:11:23.026Z,11.12
2024-05-09T01:14:23.160Z,11.12
2024-05-09T01:15:23.595Z,11.11
2024-05-09T01:16:24.053Z,11.09
2024-05-09T01:17:25.166Z,11.08
2024-05-09T01:18:25.722Z,11.08
2024-05-09T01:19:26.434Z,11.03
2024-05-09T01:20:36.961Z,11.04
2024-05-09T01:21:28.713Z,11.03
2024-05-09T01:22:28.594Z,11.03
2024-05-09T01:23:29.492Z,11.03
2024-05-09T01:24:30.354Z,10.98
2024-05-09T01:25:31.377Z,10.98
2024-05-09T01:26:31.837Z,11.00
2024-05-09T01:27:32.249Z,11.00
2024-05-09T01:28:33.128Z,10.98
2024-05-09T01:29:34.055Z,10.98
2024-05-09T01:30:37.083Z,10.94
2024-05-09T01:31:35.807Z,10.95
2024-05-09T01:32:36.843Z,10.95
2024-05-09T01:33:37.665Z,10.93
2024-05-09T01:34:38.182Z,10.91
2024-05-09T01:35:39.501Z,10.91
2024-05-09T01:36:39.913Z,10.91
2024-05-09T01:37:40.808Z,10.90
2024-05-09T01:38:41.726Z,10.91
2024-05-09T01:39:42.615Z,10.86
2024-05-09T01:40:43.559Z,10.85
2024-05-09T01:41:44.425Z,10.86
2024-05-09T01:42:45.310Z,10.82
2024-05-09T01:43:46.237Z,10.82
2024-05-09T01:44:47.100Z,10.78
2024-05-09T01:45:48.009Z,10.78
2024-05-09T01:46:48.958Z,10.75
2024-05-09T01:47:49.934Z,10.76
2024-05-09T01:48:50.408Z,10.75
2024-05-09T01:49:51.318Z,10.76
2024-05-09T01:50:52.206Z,10.73
2024-05-09T01:51:53.121Z,10.73
2024-05-09T01:52:53.998Z,10.70
2024-05-09T01:53:54.878Z,10.70
2024-05-09T01:54:55.762Z,10.68
2024-05-09T01:55:56.712Z,10.65
2024-05-09T01:56:57.545Z,10.67
2024-05-09T01:57:58.425Z,10.62
2024-05-09T01:58:59.445Z,10.62
2024-05-09T01:59:59.809Z,10.60
2024-05-09T02:01:00.799Z,10.60
2024-05-09T02:02:01.873Z,10.61
2024-05-09T02:03:02.558Z,10.58
2024-05-09T02:04:03.311Z,10.58
2024-05-09T02:05:03.902Z,10.58
2024-05-09T02:06:04.437Z,10.57
2024-05-09T02:07:04.859Z,10.57
2024-05-09T02:08:05.776Z,10.54
2024-05-09T02:09:06.621Z,10.54
2024-05-09T02:10:13.792Z,10.52
2024-05-09T02:11:09.398Z,10.49
2024-05-09T02:12:09.008Z,10.46
2024-05-09T02:13:09.523Z,10.45
2024-05-09T02:14:10.470Z,10.43
2024-05-09T02:15:11.340Z,10.45
2024-05-09T02:16:12.251Z,10.43
2024-05-09T02:17:13.225Z,10.43
2024-05-09T02:18:14.482Z,10.41
2024-05-09T02:19:15.162Z,10.42
2024-05-09T02:20:22.623Z,10.36
2024-05-09T02:21:17.423Z,10.41
2024-05-09T02:22:17.266Z,10.39
2024-05-09T02:23:18.311Z,10.38
2024-05-09T02:24:18.699Z,10.35
2024-05-09T02:25:19.576Z,10.38
2024-05-09T02:26:20.504Z,10.38
2024-05-09T02:27:21.415Z,10.38
2024-05-09T02:28:22.279Z,10.36
2024-05-09T02:29:23.239Z,10.35
2024-05-09T02:30:31.126Z,10.36
2024-05-09T02:31:25.897Z,10.34
2024-05-09T02:32:25.923Z,10.34
2024-05-09T02:33:26.594Z,10.34
2024-05-09T02:34:27.176Z,10.36
2024-05-09T02:35:28.143Z,10.36
2024-05-09T02:36:29.026Z,10.36
2024-05-09T02:37:29.908Z,10.35
2024-05-09T02:38:31.014Z,10.35
2024-05-09T02:39:31.450Z,10.31
2024-05-09T02:40:37.335Z,10.34
2024-05-09T02:41:34.182Z,10.34
2024-05-09T02:42:34.080Z,10.31
2024-05-09T02:43:34.959Z,10.30
2024-05-09T02:44:35.851Z,10.30
2024-05-09T02:45:36.753Z,10.30
2024-05-09T02:46:37.640Z,10.27
2024-05-09T02:47:38.674Z,10.28
2024-05-09T02:48:39.215Z,10.24
2024-05-09T02:49:40.125Z,10.26
2024-05-09T02:50:41.293Z,10.26
2024-05-09T02:51:41.813Z,10.26
2024-05-09T02:52:42.707Z,10.24
2024-05-09T02:53:43.610Z,10.24
2024-05-09T02:54:44.481Z,10.24
2024-05-09T02:55:45.393Z,10.21
2024-05-09T02:56:46.266Z,10.23
2024-05-09T02:57:47.149Z,10.21
2024-05-09T02:58:48.079Z,10.23
2024-05-09T02:59:48.936Z,10.21
2024-05-09T03:00:49.941Z,10.20
2024-05-09T03:01:50.791Z,10.21
2024-05-09T03:02:51.339Z,10.21
2024-05-09T03:03:51.980Z,10.20
2024-05-09T03:04:52.566Z,10.20
2024-05-09T03:05:53.025Z,10.20
2024-05-09T03:06:53.894Z,10.20
2024-05-09T03:07:54.859Z,10.23
2024-05-09T03:08:55.734Z,10.23
2024-05-09T03:09:56.618Z,10.20
2024-05-09T03:10:57.539Z,10.21
2024-05-09T03:11:58.594Z,10.18
2024-05-09T03:12:58.987Z,10.20
2024-05-09T03:13:59.926Z,10.23
2024-05-09T03:15:00.810Z,10.26
2024-05-09T03:16:01.690Z,10.28
2024-05-09T03:17:02.646Z,10.26
2024-05-09T03:18:03.788Z,10.24
2024-05-09T03:19:04.701Z,10.21
2024-05-09T03:20:06.953Z,10.20
2024-05-09T03:21:06.054Z,10.20
2024-05-09T03:22:06.502Z,10.20
2024-05-09T03:23:07.868Z,10.18
2024-05-09T03:24:08.028Z,10.18
2024-05-09T03:25:08.918Z,10.16
2024-05-09T03:26:09.854Z,10.17
2024-05-09T03:27:10.863Z,10.18
2024-05-09T03:28:11.248Z,10.18
2024-05-09T03:29:12.270Z,10.14
2024-05-09T03:30:22.144Z,10.10
2024-05-09T03:31:14.426Z,10.09
2024-05-09T03:32:14.549Z,10.06
2024-05-09T03:33:15.909Z,10.09
2024-05-09T03:34:15.599Z,10.12
2024-05-09T03:35:16.549Z,10.08
2024-05-09T03:36:17.447Z,10.06
2024-05-09T03:37:18.353Z,10.06
2024-05-09T03:38:19.294Z,10.06
2024-05-09T03:39:20.130Z,10.05
2024-05-09T03:40:26.207Z,9.99
2024-05-09T03:41:22.901Z,10.02
2024-05-09T03:42:22.783Z,9.99
2024-05-09T03:43:23.671Z,9.94
2024-05-09T03:44:24.568Z,9.98
2024-05-09T03:45:25.437Z,9.96
2024-05-09T03:46:26.318Z,9.94
2024-05-09T03:47:27.431Z,9.94
2024-05-09T03:48:27.963Z,9.90
2024-05-09T03:49:28.422Z,9.93
2024-05-09T03:50:33.787Z,9.98
2024-05-09T03:51:31.035Z,10.03
2024-05-09T03:52:30.932Z,10.05
2024-05-09T03:53:31.995Z,10.05
2024-05-09T03:54:32.471Z,10.08
2024-05-09T03:55:33.371Z,10.09
2024-05-09T03:56:34.366Z,10.08
2024-05-09T03:57:34.799Z,10.06
2024-05-09T03:58:35.679Z,10.06
2024-05-09T03:59:36.669Z,10.08
2024-05-09T04:00:39.536Z,10.09
2024-05-09T04:01:38.228Z,10.08
2024-05-09T04:02:39.472Z,10.09
2024-05-09T04:03:40.045Z,10.08
2024-05-09T04:04:40.482Z,10.06
2024-05-09T04:05:42.700Z,10.06
2024-05-09T04:06:41.899Z,10.05
2024-05-09T04:07:42.796Z,10.06
2024-05-09T04:08:43.739Z,10.08
2024-05-09T04:09:44.595Z,10.08
2024-05-09T04:10:45.512Z,10.08
2024-05-09T04:11:46.582Z,10.10
2024-05-09T04:12:47.018Z,10.08
2024-05-09T04:13:47.936Z,10.06
2024-05-09T04:14:48.782Z,10.09
2024-05-09T04:15:49.668Z,10.08
2024-05-09T04:16:50.613Z,10.08
2024-05-09T04:17:51.825Z,10.10
2024-05-09T04:18:52.440Z,10.10
2024-05-09T04:19:52.890Z,10.09
2024-05-09T04:20:53.789Z,10.10
2024-05-09T04:21:54.635Z,10.10
2024-05-09T04:22:55.572Z,10.14
2024-05-09T04:23:56.428Z,10.12
2024-05-09T04:24:57.304Z,10.16
2024-05-09T04:25:58.252Z,10.17
2024-05-09T04:26:59.132Z,10.17
2024-05-09T04:28:00.301Z,10.14
2024-05-09T04:29:00.694Z,10.17
2024-05-09T04:30:01.614Z,10.18
2024-05-09T04:31:02.486Z,10.21
2024-05-09T04:32:03.430Z,10.21
2024-05-09T04:33:04.527Z,10.27
2024-05-09T04:34:05.170Z,10.27
2024-05-09T04:35:05.741Z,10.34
2024-05-09T04:36:06.596Z,10.31
2024-05-09T04:37:07.468Z,10.31
2024-05-09T04:38:08.421Z,10.35
2024-05-09T04:39:09.304Z,10.38
2024-05-09T04:40:17.203Z,10.38
2024-05-09T04:41:11.981Z,10.41
2024-05-09T04:42:11.826Z,10.42
2024-05-09T04:43:12.835Z,10.45
2024-05-09T04:44:13.710Z,10.43
2024-05-09T04:45:14.594Z,10.45
2024-05-09T04:46:15.465Z,10.48
2024-05-09T04:47:16.539Z,10.49
2024-05-09T04:48:17.316Z,10.48
2024-05-09T04:49:18.009Z,10.54
2024-05-09T04:50:28.915Z,10.58
2024-05-09T04:51:20.276Z,10.57
2024-05-09T04:52:20.151Z,10.57
2024-05-09T04:53:21.098Z,10.60
2024-05-09T04:54:30.094Z,10.62
2024-05-09T04:55:23.722Z,10.64
2024-05-09T04:56:23.654Z,10.65
2024-05-09T04:57:24.511Z,10.70
2024-05-09T04:58:25.420Z,10.70
2024-05-09T04:59:26.351Z,10.72
2024-05-09T05:00:32.677Z,10.76
2024-05-09T05:01:29.007Z,10.82
2024-05-09T05:02:28.951Z,10.85
2024-05-09T05:03:30.082Z,10.93
2024-05-09T05:04:30.473Z,10.97
2024-05-09T05:05:31.457Z,11.00
2024-05-09T05:06:31.871Z,11.00
2024-05-09T05:07:32.762Z,10.98
2024-05-09T05:08:33.836Z,11.00
2024-05-09T05:09:34.241Z,11.08
2024-05-09T05:10:36.689Z,11.13
2024-05-09T05:11:35.949Z,11.13
2024-05-09T05:12:36.484Z,11.18
2024-05-09T05:13:40.103Z,11.20
2024-05-09T05:14:38.299Z,11.20
2024-05-09T05:15:39.155Z,11.23
2024-05-09T05:16:40.042Z,11.30
2024-05-09T05:17:41.204Z,11.31
2024-05-09T05:18:41.964Z,11.34
2024-05-09T05:19:42.854Z,11.41
2024-05-09T05:20:43.841Z,11.41
2024-05-09T05:21:44.285Z,11.43
2024-05-09T05:22:45.212Z,11.46
2024-05-09T05:23:46.147Z,11.51
2024-05-09T05:24:46.994Z,11.58
2024-05-09T05:25:48.082Z,11.62
2024-05-09T05:26:48.680Z,11.62
2024-05-09T05:27:49.513Z,11.59
2024-05-09T05:28:50.691Z,11.64
2024-05-09T05:29:51.056Z,11.69
2024-05-09T05:30:51.967Z,11.69
2024-05-09T05:31:53.033Z,11.76
2024-05-09T05:32:53.643Z,11.74
2024-05-09T05:33:54.218Z,11.76
2024-05-09T05:34:54.650Z,11.76
2024-05-09T05:35:55.495Z,11.73
2024-05-09T05:36:56.377Z,11.70
2024-05-09T05:37:57.305Z,11.74
2024-05-09T05:38:58.216Z,11.77
2024-05-09T05:39:59.071Z,11.77
2024-05-09T05:41:00.054Z,11.79
2024-05-09T05:42:00.926Z,11.87
2024-05-09T05:43:01.819Z,11.91
2024-05-09T05:44:02.732Z,12.00
2024-05-09T05:45:05.111Z,12.08
2024-05-09T05:46:04.396Z,12.17
2024-05-09T05:47:05.296Z,12.21
2024-05-09T05:48:06.958Z,12.23
2024-05-09T05:49:07.001Z,12.23
2024-05-09T05:50:20.433Z,12.23
2024-05-09T05:51:09.240Z,12.25
2024-05-09T05:52:09.079Z,12.25
2024-05-09T05:53:10.646Z,12.32
2024-05-09T05:54:10.656Z,12.35
2024-05-09T05:55:11.566Z,12.38
2024-05-09T05:56:12.525Z,12.41
2024-05-09T05:57:13.398Z,12.41
2024-05-09T05:58:14.292Z,12.47
2024-05-09T05:59:15.702Z,12.54
2024-05-09T06:00:25.948Z,12.59
2024-05-09T06:01:17.550Z,12.65
2024-05-09T06:02:17.511Z,12.71
2024-05-09T06:03:17.983Z,12.73
2024-05-09T06:04:18.995Z,12.80
2024-05-09T06:05:19.889Z,12.84
2024-05-09T06:06:20.779Z,12.90
2024-05-09T06:07:21.659Z,12.95
2024-05-09T06:08:22.593Z,12.98
2024-05-09T06:09:23.484Z,13.01
2024-05-09T06:10:26.488Z,13.05
2024-05-09T06:11:26.295Z,13.09
2024-05-09T06:12:25.891Z,13.14
2024-05-09T06:13:26.325Z,13.17
2024-05-09T06:14:27.274Z,13.24
2024-05-09T06:15:28.140Z,13.32
2024-05-09T06:16:29.023Z,13.32
2024-05-09T06:17:29.990Z,13.40
2024-05-09T06:18:30.680Z,13.49
2024-05-09T06:19:31.247Z,13.55
2024-05-09T06:20:35.916Z,13.58
2024-05-09T06:21:33.443Z,13.64
2024-05-09T06:22:33.309Z,13.65
2024-05-09T06:23:34.342Z,13.60
2024-05-09T06:24:34.789Z,13.64
2024-05-09T06:25:36.086Z,13.65
2024-05-09T06:26:36.638Z,13.67
2024-05-09T06:27:37.503Z,13.75
2024-05-09T06:28:38.372Z,13.83
2024-05-09T06:29:39.585Z,13.90
2024-05-09T06:30:41.798Z,13.96
2024-05-09T06:31:40.833Z,14.03
2024-05-09T06:32:41.816Z,14.09
2024-05-09T06:33:42.799Z,14.09
2024-05-09T06:34:43.345Z,14.09
2024-05-09T06:35:44.609Z,14.05
2024-05-09T06:36:45.170Z,14.16
2024-05-09T06:37:46.084Z,14.16
2024-05-09T06:38:46.988Z,14.21
2024-05-09T06:39:47.885Z,14.19
2024-05-09T06:40:48.838Z,14.23
2024-05-09T06:41:49.758Z,14.28
2024-05-09T06:42:50.650Z,14.31
2024-05-09T06:43:51.591Z,14.38
2024-05-09T06:44:52.472Z,14.48
2024-05-09T06:45:53.344Z,14.49
2024-05-09T06:46:55.753Z,14.53
2024-05-09T06:47:55.012Z,14.56
2024-05-09T06:48:55.590Z,14.55
2024-05-09T06:49:56.151Z,14.44
2024-05-09T06:50:57.071Z,14.45
2024-05-09T06:51:57.932Z,14.63
2024-05-09T06:54:21.776Z,14.74
2024-05-09T06:55:22.686Z,14.82
2024-05-09T06:56:23.629Z,14.87
2024-05-09T06:57:24.485Z,14.93
2024-05-09T06:58:25.361Z,14.97
2024-05-09T06:59:26.294Z,14.90
2024-05-09T07:00:35.122Z,14.97
2024-05-09T07:01:29.050Z,14.99
2024-05-09T07:02:28.526Z,15.11
2024-05-09T07:03:29.566Z,15.20
2024-05-09T07:04:30.093Z,15.27
2024-05-09T07:05:30.589Z,15.35
2024-05-09T07:06:31.459Z,15.41
2024-05-09T07:07:32.347Z,15.45
2024-05-09T07:08:33.417Z,15.48
2024-05-09T07:09:33.771Z,15.50
2024-05-09T07:10:35.949Z,15.51
2024-05-09T07:11:35.876Z,15.58
2024-05-09T07:12:36.357Z,15.60
2024-05-09T07:13:37.224Z,15.60
2024-05-09T07:14:38.764Z,15.69
2024-05-09T07:15:38.679Z,15.77
2024-05-09T07:16:39.561Z,15.88
2024-05-09T07:17:40.643Z,15.98
2024-05-09T07:18:41.339Z,16.06
2024-05-09T07:19:41.931Z,16.02
2024-05-09T07:20:42.990Z,16.05
2024-05-09T07:21:43.418Z,15.98
2024-05-09T07:22:44.302Z,16.00
2024-05-09T07:23:47.394Z,16.06
2024-05-09T07:24:45.886Z,16.06
2024-05-09T07:25:47.007Z,16.09
2024-05-09T07:26:47.489Z,16.16
2024-05-09T07:27:48.352Z,16.08
2024-05-09T07:28:49.271Z,16.14
2024-05-09T07:29:49.912Z,16.25
2024-05-09T07:30:50.889Z,16.32
2024-05-09T07:31:51.328Z,16.39
2024-05-09T07:32:52.350Z,16.46
2024-05-09T07:33:52.783Z,16.57
2024-05-09T07:34:53.631Z,16.72
2024-05-09T07:35:54.541Z,16.82
2024-05-09T07:36:55.413Z,16.90
2024-05-09T07:37:56.348Z,16.97
2024-05-09T07:38:57.218Z,17.04
2024-05-09T07:39:58.105Z,17.12
2024-05-09T07:40:59.049Z,17.22
2024-05-09T07:41:59.920Z,17.30
2024-05-09T07:43:00.806Z,17.19
2024-05-09T07:44:01.725Z,17.27
2024-05-09T07:45:21.238Z,17.35
2024-05-09T07:47:03.954Z,17.52
2024-05-09T07:48:14.398Z,17.66
2024-05-09T07:52:22.657Z,18.06
2024-05-09T07:53:22.141Z,18.06
2024-05-09T07:53:36.973Z,18.06
2024-05-09T07:54:11.048Z,17.94
2024-05-09T07:55:10.273Z,17.87
2024-05-09T07:56:11.974Z,17.86
2024-05-09T07:57:11.258Z,17.87
2024-05-09T07:58:12.265Z,17.86
2024-05-09T07:59:12.652Z,17.83
2024-05-09T08:00:17.297Z,17.96
2024-05-09T08:01:15.431Z,18.09
2024-05-09T08:02:15.065Z,18.21
2024-05-09T08:03:15.639Z,18.33
2024-05-09T08:04:16.113Z,18.45
2024-05-09T08:05:16.843Z,18.63
2024-05-09T08:06:17.320Z,18.76
2024-05-09T08:07:18.308Z,18.56
2024-05-09T08:08:18.715Z,18.52
2024-05-09T08:09:21.350Z,18.52
2024-05-09T08:10:24.517Z,18.58
2024-05-09T08:11:21.978Z,18.64
2024-05-09T08:12:21.828Z,18.79
2024-05-09T08:13:23.033Z,18.78
2024-05-09T08:14:23.572Z,18.75
2024-05-09T08:15:24.445Z,18.83
2024-05-09T08:16:25.355Z,18.96
2024-05-09T08:17:26.322Z,18.97
2024-05-09T08:18:26.883Z,18.83
2024-05-09T08:19:27.317Z,18.94
2024-05-09T08:20:33.455Z,19.13
2024-05-09T08:21:30.060Z,19.26
2024-05-09T08:22:29.935Z,19.38
2024-05-09T08:23:30.825Z,19.45
2024-05-09T08:24:31.753Z,19.67
2024-05-09T08:25:32.598Z,19.72
2024-05-09T08:26:33.483Z,19.52
2024-05-09T08:27:34.393Z,19.38
2024-05-09T08:28:35.270Z,19.54
2024-05-09T08:29:36.190Z,19.54
2024-05-09T08:30:38.212Z,19.87
2024-05-09T08:31:37.961Z,19.82
2024-05-09T08:32:38.579Z,20.05
2024-05-09T08:33:39.562Z,20.36
2024-05-09T08:34:40.046Z,20.71
2024-05-09T08:35:40.901Z,20.39
2024-05-09T08:36:41.821Z,20.26
2024-05-09T08:37:42.795Z,20.52
2024-05-09T08:38:43.180Z,20.88
2024-05-09T08:39:44.115Z,21.53
2024-05-09T08:40:45.032Z,22.11
2024-05-09T08:41:45.938Z,22.68
2024-05-09T08:42:46.862Z,22.85
2024-05-09T08:43:47.750Z,22.76
2024-05-09T08:44:48.619Z,22.88
2024-05-09T08:45:49.679Z,22.86
2024-05-09T08:46:50.075Z,23.26
2024-05-09T08:47:51.098Z,23.92
2024-05-09T08:48:51.637Z,24.16
2024-05-09T08:49:52.116Z,23.61
2024-05-09T08:50:53.198Z,23.78
2024-05-09T08:51:53.743Z,23.81
2024-05-09T08:52:54.617Z,24.11
2024-05-09T08:53:55.505Z,24.13
2024-05-09T08:54:56.424Z,24.44
2024-05-09T08:55:57.288Z,24.86
2024-05-09T08:56:58.171Z,24.37
2024-05-09T08:57:59.173Z,24.38
2024-05-09T08:58:59.551Z,24.60
2024-05-09T09:00:00.573Z,24.99
2024-05-09T09:01:01.038Z,24.75
2024-05-09T09:02:02.040Z,25.21
2024-05-09T09:03:02.487Z,25.67
2024-05-09T09:04:03.515Z,26.05
2024-05-09T09:05:04.075Z,25.15
2024-05-09T09:06:04.436Z,23.71
2024-05-09T09:07:05.368Z,23.96
2024-05-09T09:08:06.234Z,23.45
2024-05-09T09:09:07.114Z,23.13
2024-05-09T09:10:08.775Z,23.52
2024-05-09T09:11:08.701Z,23.37
2024-05-09T09:12:10.693Z,22.99
2024-05-09T09:13:10.274Z,23.11
2024-05-09T09:14:10.622Z,23.64
2024-05-09T09:15:11.539Z,24.26
2024-05-09T09:16:12.544Z,24.55
2024-05-09T09:17:12.974Z,23.96
2024-05-09T09:18:13.960Z,24.38
2024-05-09T09:19:14.441Z,24.86
2024-05-09T09:20:19.378Z,25.19
2024-05-09T09:21:16.626Z,25.43
2024-05-09T09:22:16.584Z,25.52
2024-05-09T09:23:17.426Z,25.09
2024-05-09T09:24:18.311Z,24.86
2024-05-09T09:25:19.243Z,25.27
2024-05-09T09:26:20.120Z,25.21
2024-05-09T09:27:20.999Z,24.65
2024-05-09T09:28:21.895Z,24.25
2024-05-09T09:29:22.794Z,23.63
2024-05-09T09:30:34.550Z,23.61
2024-05-09T09:31:25.534Z,24.56
2024-05-09T09:32:24.986Z,24.79
2024-05-09T09:33:25.879Z,24.75
2024-05-09T09:34:26.949Z,25.15
2024-05-09T09:35:27.419Z,25.04
2024-05-09T09:36:28.343Z,24.52
2024-05-09T09:37:29.223Z,23.49
2024-05-09T09:38:30.089Z,22.85
2024-05-09T09:39:31.013Z,22.22
2024-05-09T09:40:33.935Z,21.73
2024-05-09T09:41:32.783Z,21.44
2024-05-09T09:42:33.689Z,21.13
2024-05-09T09:43:34.650Z,21.80
2024-05-09T09:44:37.375Z,23.06
2024-05-09T09:45:36.440Z,23.88
2024-05-09T09:46:36.919Z,24.59
2024-05-09T09:47:37.884Z,25.27
2024-05-09T09:48:38.872Z,25.81
2024-05-09T09:49:39.859Z,25.93
2024-05-09T09:50:40.738Z,26.21
2024-05-09T09:51:41.652Z,26.61
2024-05-09T09:52:42.528Z,26.90
2024-05-09T09:53:43.386Z,27.20
2024-05-09T09:54:44.346Z,26.94
2024-05-09T09:55:45.244Z,26.76
2024-05-09T09:56:46.113Z,26.41
2024-05-09T09:57:47.022Z,26.19
2024-05-09T09:58:47.880Z,26.21
2024-05-09T09:59:48.768Z,25.03
2024-05-09T10:00:49.793Z,23.92
2024-05-09T10:01:50.438Z,23.18
2024-05-09T10:02:50.854Z,22.66
2024-05-09T10:03:51.822Z,22.48
2024-05-09T10:04:52.349Z,22.19
2024-05-09T10:05:52.796Z,22.25
2024-05-09T10:06:53.739Z,22.31
2024-05-09T10:07:54.877Z,22.38
2024-05-09T10:08:55.232Z,22.28
2024-05-09T10:09:56.151Z,22.44
2024-05-09T10:10:57.118Z,23.66
2024-05-09T10:12:00.421Z,24.71
2024-05-09T10:12:58.736Z,25.70
2024-05-09T10:13:59.576Z,26.68
2024-05-09T10:15:00.485Z,26.95
2024-05-09T10:16:01.383Z,27.40
2024-05-09T10:17:02.251Z,27.47
2024-05-09T10:18:03.352Z,27.35
2024-05-09T10:19:03.871Z,26.83
2024-05-09T10:20:11.718Z,26.98
2024-05-09T10:21:06.161Z,26.94
2024-05-09T10:22:06.189Z,26.98
2024-05-09T10:23:06.619Z,26.97
2024-05-09T10:24:07.499Z,27.03
2024-05-09T10:25:08.375Z,26.93
2024-05-09T10:26:09.265Z,27.25
2024-05-09T10:27:10.145Z,27.45
2024-05-09T10:28:11.155Z,27.53
2024-05-09T10:29:11.573Z,27.25
2024-05-09T10:30:17.872Z,26.60
2024-05-09T10:31:14.356Z,26.48
2024-05-09T10:32:13.769Z,26.52
2024-05-09T10:33:14.792Z,26.82
2024-05-09T10:34:15.193Z,27.34
2024-05-09T10:35:16.107Z,28.07
2024-05-09T10:36:17.013Z,27.93
2024-05-09T10:37:17.932Z,26.97
2024-05-09T10:38:18.812Z,27.08
2024-05-09T10:39:19.666Z,27.54
2024-05-09T10:40:26.326Z,27.82
2024-05-09T10:41:22.340Z,28.19
2024-05-09T10:42:22.217Z,27.90
2024-05-09T10:43:23.176Z,27.82
2024-05-09T10:44:24.042Z,27.97
2024-05-09T10:45:24.925Z,28.19
2024-05-09T10:46:25.861Z,27.69
2024-05-09T10:47:26.809Z,27.26
2024-05-09T10:48:28.081Z,27.10
2024-05-09T10:49:28.566Z,27.42
2024-05-09T10:50:34.054Z,27.49
2024-05-09T10:51:31.239Z,27.57
2024-05-09T10:52:31.094Z,27.19
2024-05-09T10:53:32.037Z,25.64
2024-05-09T10:54:32.894Z,24.79
2024-05-09T10:55:33.790Z,24.06
2024-05-09T10:56:34.668Z,23.79
2024-05-09T10:57:35.574Z,23.61
2024-05-09T10:58:36.440Z,23.13
2024-05-09T10:59:37.325Z,22.67
2024-05-09T11:00:38.419Z,22.59
2024-05-09T11:01:38.976Z,23.84
2024-05-09T11:02:39.514Z,24.90
2024-05-09T11:03:40.406Z,25.63
2024-05-09T11:04:41.040Z,26.11
2024-05-09T11:05:41.647Z,26.48
2024-05-09T11:06:42.121Z,25.89
2024-05-09T11:07:42.991Z,25.96
2024-05-09T11:08:43.892Z,25.09
2024-05-09T11:09:44.795Z,24.38
2024-05-09T11:10:45.723Z,23.85
2024-05-09T11:11:46.551Z,23.52
2024-05-09T11:12:46.988Z,23.59
2024-05-09T11:13:47.861Z,24.68
2024-05-09T11:14:48.708Z,25.58
2024-05-09T11:15:49.621Z,26.28
2024-05-09T11:16:50.525Z,26.88
2024-05-09T11:17:51.459Z,27.53
2024-05-09T11:18:52.762Z,27.78
2024-05-09T11:19:53.285Z,27.42
2024-05-09T11:20:54.167Z,27.15
2024-05-09T11:21:55.157Z,27.27
2024-05-09T11:22:56.010Z,27.35
2024-05-09T11:23:56.928Z,27.45
2024-05-09T11:24:57.804Z,27.76
2024-05-09T11:25:58.795Z,27.54
2024-05-09T11:26:59.234Z,27.90
2024-05-09T11:28:00.228Z,28.01
2024-05-09T11:29:00.619Z,27.80
2024-05-09T11:30:01.527Z,27.95
2024-05-09T11:31:02.429Z,27.66
2024-05-09T11:32:03.322Z,27.79
2024-05-09T11:33:04.252Z,28.13
2024-05-09T11:34:05.151Z,28.12
2024-05-09T11:35:06.018Z,28.49
2024-05-09T11:36:06.926Z,28.53
2024-05-09T11:37:07.888Z,28.84
2024-05-09T11:38:08.765Z,28.71
2024-05-09T11:39:09.665Z,28.91
2024-05-09T11:40:16.835Z,29.28
2024-05-09T11:41:12.316Z,28.93
2024-05-09T11:42:12.196Z,28.75
2024-05-09T11:43:13.135Z,29.15
2024-05-09T11:44:13.984Z,29.29
2024-05-09T11:45:14.869Z,29.83
2024-05-09T11:46:15.940Z,30.59
2024-05-09T11:47:16.500Z,30.07
2024-05-09T11:48:16.973Z,29.34
2024-05-09T11:49:17.639Z,29.52
2024-05-09T11:50:26.840Z,28.64
2024-05-09T11:51:19.865Z,27.47
2024-05-09T11:52:19.779Z,27.35
2024-05-09T11:53:20.633Z,26.43
2024-05-09T11:54:21.539Z,26.95
2024-05-09T11:55:25.639Z,27.27
2024-05-09T11:56:24.181Z,27.76
2024-05-09T11:57:24.063Z,28.31
2024-05-09T11:58:24.995Z,28.84
2024-05-09T11:59:25.845Z,29.22
2024-05-09T12:00:34.078Z,29.87
2024-05-09T12:01:28.686Z,30.13
2024-05-09T12:02:28.140Z,29.92
2024-05-09T12:03:29.102Z,29.44
2024-05-09T12:04:29.711Z,28.28
2024-05-09T12:05:30.306Z,27.34
2024-05-09T12:06:30.841Z,26.36
2024-05-09T12:07:31.763Z,25.66
2024-05-09T12:08:32.675Z,26.34
2024-05-09T12:09:33.614Z,27.41
2024-05-09T12:10:36.226Z,27.85
2024-05-09T12:11:35.280Z,28.27
2024-05-09T12:12:37.385Z,27.70
2024-05-09T12:13:37.016Z,27.75
2024-05-09T12:14:37.846Z,28.00
2024-05-09T12:15:39.268Z,27.76
2024-05-09T12:16:39.392Z,27.26
2024-05-09T12:17:39.916Z,27.60
2024-05-09T12:18:40.361Z,27.76
2024-05-09T12:19:41.308Z,27.63
2024-05-09T12:20:42.224Z,28.12
2024-05-09T12:21:43.110Z,27.78
2024-05-09T12:22:44.001Z,26.98
2024-05-09T12:23:44.894Z,26.31
2024-05-09T12:24:45.830Z,26.79
2024-05-09T12:25:46.689Z,27.52
2024-05-09T12:26:47.569Z,27.88
2024-05-09T12:27:48.555Z,27.95
2024-05-09T12:28:49.393Z,27.85
2024-05-09T12:29:50.278Z,28.43
2024-05-09T12:30:51.204Z,28.62
2024-05-09T12:31:52.115Z,28.27
2024-05-09T12:32:53.288Z,28.37
2024-05-09T12:33:53.905Z,28.62
2024-05-09T12:34:54.319Z,28.64
2024-05-09T12:35:55.205Z,28.98
2024-05-09T12:36:56.138Z,29.34
2024-05-09T12:37:56.998Z,29.40
2024-05-09T12:38:57.888Z,29.41
2024-05-09T12:39:58.820Z,29.54
2024-05-09T12:40:59.844Z,28.87
2024-05-09T12:42:00.275Z,29.06
2024-05-09T12:43:01.382Z,29.49
2024-05-09T12:44:01.737Z,29.10
2024-05-09T12:45:02.631Z,29.39
2024-05-09T12:46:03.576Z,29.62
2024-05-09T12:47:04.455Z,29.76
2024-05-09T12:48:05.537Z,29.86
2024-05-09T12:49:06.068Z,29.19
2024-05-09T12:50:10.774Z,28.07
2024-05-09T12:51:08.233Z,27.10
2024-05-09T12:52:08.216Z,27.07
2024-05-09T12:54:21.461Z,26.67
2024-05-09T12:55:22.092Z,27.50
2024-05-09T12:56:22.972Z,27.90
2024-05-09T12:57:23.854Z,28.01
2024-05-09T12:58:24.940Z,27.22
2024-05-09T12:59:25.797Z,26.30
2024-05-09T13:00:31.564Z,26.80
2024-05-09T13:01:28.490Z,27.44
2024-05-09T13:02:28.533Z,27.97
2024-05-09T13:03:29.196Z,28.22
2024-05-09T13:04:29.767Z,28.56
2024-05-09T13:05:30.538Z,29.17
2024-05-09T13:06:31.005Z,29.46
2024-05-09T13:07:31.890Z,29.73
2024-05-09T13:08:32.769Z,29.92
2024-05-09T13:09:33.708Z,30.13
2024-05-09T13:10:34.708Z,29.31
2024-05-09T13:11:35.139Z,28.34
2024-05-09T13:12:36.029Z,28.15
2024-05-09T13:13:36.880Z,28.93